Atkinson, North Carolina
Current Conditions -  °F | °C
As of 7:11 AM on Saturday 01 Nov 2014 (Local Time) from KILM Reporting Station
Thunderstorm Thunderstorm  
Wind Chill: 50°   Ceiling: 2000
Heat Index: 50°   Visibility: 2mi
Dew Point: 48°   Wind: 14mph
Humidity: 93%   Direction: 270°W
Pressure: 29.67"   Gusts: NA
Location:  34.53°N, 78.17°W
Report Text: KILM 011111Z 27012KT 2SM TSRA BR SCT011 BKN020 OVC060 10/09 A2967 RMK AO2 LTG DSNT NE AND SE P0023 T01000089
Loading
Personal Weather Stations






























Interactive Weather Map New forecast layout! Learn more

10-Day Weather Forecast

Advertisements
Track Severe Weather on mobile